ABY699 OMSJ-VTSP
Flight info
| Callsign | ABY699 |
|---|---|
| Flight time | 6h 11m |
| Altitude | 35000 |
| Route | IVURO M428 MUNGA A777 VAXIM L301 RASKI L639 AAE N895 NNP L524 DOVIR/N0457F370 L524 ELBAB L510 IDKUT L645 UBNEN UBNEN1D |
| Aircraft | A21N/M-SDFGHIJ1RWY/LB1V1 |
Departure
| Time | 2026-04-25 14:00 |
|---|---|
| Airport | Sharjah International Airport (OMSJ) |
Arrival
| Time | 2026-04-25 20:11 |
|---|---|
| Airport | Phuket International Airport (VTSP) |
| Time | Latitude | Longitude | Altitude | Speed | Heading |
|---|---|---|---|---|---|
| 2026-04-25 13:28 | 25.32508 | 55.51741 | 108 ft | 0 kts | 121° |
| 2026-04-25 13:49 | 25.32514 | 55.51728 | 118 ft | 4 kts | 113° |
| 2026-04-25 13:49 | 25.32520 | 55.51700 | 119 ft | 4 kts | 83° |
| 2026-04-25 13:49 | 25.32511 | 55.51675 | 119 ft | 4 kts | 43° |
| 2026-04-25 13:50 | 25.32503 | 55.51668 | 116 ft | 0 kts | 32° |
| 2026-04-25 13:54 | 25.32515 | 55.51676 | 119 ft | 3 kts | 32° |
| 2026-04-25 13:54 | 25.32545 | 55.51697 | 120 ft | 7 kts | 32° |
| 2026-04-25 13:54 | 25.32593 | 55.51731 | 120 ft | 10 kts | 32° |
| 2026-04-25 13:54 | 25.32618 | 55.51800 | 119 ft | 13 kts | 118° |
| 2026-04-25 13:55 | 25.32564 | 55.51894 | 120 ft | 16 kts | 124° |
| 2026-04-25 13:55 | 25.32499 | 55.52007 | 116 ft | 19 kts | 122° |
| 2026-04-25 13:55 | 25.32424 | 55.52137 | 119 ft | 21 kts | 122° |
| 2026-04-25 13:55 | 25.32338 | 55.52285 | 120 ft | 24 kts | 122° |
| 2026-04-25 13:56 | 25.32243 | 55.52450 | 119 ft | 27 kts | 122° |
| 2026-04-25 13:56 | 25.32138 | 55.52635 | 118 ft | 30 kts | 122° |
| 2026-04-25 13:56 | 25.32024 | 55.52835 | 120 ft | 31 kts | 122° |
| 2026-04-25 13:56 | 25.31905 | 55.53041 | 120 ft | 32 kts | 122° |
| 2026-04-25 13:57 | 25.31797 | 55.53232 | 119 ft | 18 kts | 105° |
| 2026-04-25 13:57 | 25.31783 | 55.53325 | 120 ft | 19 kts | 86° |
| 2026-04-25 13:57 | 25.31913 | 55.53442 | 118 ft | 7 kts | 31° |
| 2026-04-25 13:57 | 25.31914 | 55.53443 | 118 ft | 0 kts | 30° |
| 2026-04-25 13:58 | 25.31915 | 55.53444 | 118 ft | 1 kts | 30° |
| 2026-04-25 13:58 | 25.31931 | 55.53454 | 119 ft | 4 kts | 30° |
| 2026-04-25 13:58 | 25.31970 | 55.53479 | 122 ft | 10 kts | 32° |
| 2026-04-25 13:59 | 25.32065 | 55.53518 | 124 ft | 20 kts | 345° |
| 2026-04-25 13:59 | 25.32171 | 55.53383 | 120 ft | 32 kts | 304° |
| 2026-04-25 13:59 | 25.32419 | 55.52967 | 124 ft | 99 kts | 301° |
| 2026-04-25 13:59 | 25.32896 | 55.52123 | 120 ft | 157 kts | 303° |
| 2026-04-25 14:00 | 25.33105 | 55.51763 | 135 ft | 171 kts | 302° |
| 2026-04-25 14:00 | 25.34155 | 55.49909 | 1040 ft | 174 kts | 300° |
| 2026-04-25 14:00 | 25.34803 | 55.48763 | 1699 ft | 177 kts | 303° |
| 2026-04-25 14:00 | 25.35481 | 55.47579 | 2168 ft | 188 kts | 303° |
| 2026-04-25 14:01 | 25.36206 | 55.46315 | 2603 ft | 201 kts | 303° |
| 2026-04-25 14:01 | 25.36977 | 55.44970 | 3039 ft | 214 kts | 303° |
| 2026-04-25 14:01 | 25.37812 | 55.43511 | 3353 ft | 235 kts | 303° |
| 2026-04-25 14:01 | 25.38780 | 55.41987 | 3800 ft | 247 kts | 314° |
| 2026-04-25 14:02 | 25.40241 | 55.40982 | 4399 ft | 253 kts | 345° |
| 2026-04-25 14:02 | 25.42002 | 55.40993 | 5012 ft | 260 kts | 14° |
| 2026-04-25 14:02 | 25.43636 | 55.41872 | 5631 ft | 265 kts | 32° |
| 2026-04-25 14:02 | 25.44135 | 55.42247 | 5841 ft | 266 kts | 33° |
| 2026-04-25 14:03 | 25.46711 | 55.44232 | 6836 ft | 272 kts | 32° |
| 2026-04-25 14:03 | 25.48292 | 55.45404 | 7433 ft | 275 kts | 32° |
| 2026-04-25 14:03 | 25.49781 | 55.46779 | 7849 ft | 288 kts | 51° |
| 2026-04-25 14:03 | 25.50660 | 55.48800 | 8287 ft | 298 kts | 79° |
| 2026-04-25 14:04 | 25.50649 | 55.51088 | 8891 ft | 300 kts | 103° |
| 2026-04-25 14:04 | 25.50051 | 55.53303 | 9544 ft | 302 kts | 110° |
| 2026-04-25 14:04 | 25.49368 | 55.55518 | 10139 ft | 307 kts | 110° |
| 2026-04-25 14:04 | 25.48683 | 55.57817 | 10472 ft | 322 kts | 109° |
| 2026-04-25 14:05 | 25.47986 | 55.60244 | 10723 ft | 340 kts | 109° |
| 2026-04-25 14:05 | 25.47269 | 55.62803 | 10957 ft | 357 kts | 108° |
| 2026-04-25 14:05 | 25.46522 | 55.65494 | 11183 ft | 373 kts | 108° |
| 2026-04-25 14:05 | 25.45760 | 55.68255 | 11400 ft | 387 kts | 108° |
| 2026-04-25 14:06 | 25.44962 | 55.71161 | 11604 ft | 401 kts | 108° |
| 2026-04-25 14:06 | 25.44139 | 55.74164 | 11797 ft | 413 kts | 108° |
| 2026-04-25 14:06 | 25.43294 | 55.77244 | 12126 ft | 419 kts | 108° |
| 2026-04-25 14:06 | 25.42444 | 55.80340 | 12569 ft | 421 kts | 108° |
| 2026-04-25 14:07 | 25.41587 | 55.83459 | 13031 ft | 423 kts | 108° |
| 2026-04-25 14:07 | 25.40728 | 55.86572 | 13505 ft | 425 kts | 108° |
| 2026-04-25 14:07 | 25.39863 | 55.89711 | 13945 ft | 427 kts | 108° |
| 2026-04-25 14:07 | 25.38994 | 55.92860 | 14299 ft | 430 kts | 109° |
| 2026-04-25 14:08 | 25.38118 | 55.96034 | 14651 ft | 432 kts | 108° |
| 2026-04-25 14:08 | 25.37236 | 55.99230 | 15008 ft | 436 kts | 109° |
| 2026-04-25 14:08 | 25.36346 | 56.02450 | 15342 ft | 440 kts | 109° |
| 2026-04-25 14:08 | 25.35451 | 56.05691 | 15728 ft | 442 kts | 109° |
| 2026-04-25 14:09 | 25.34561 | 56.08906 | 16082 ft | 444 kts | 109° |
| 2026-04-25 14:09 | 25.33650 | 56.12195 | 16390 ft | 448 kts | 109° |
| 2026-04-25 14:09 | 25.32713 | 56.15491 | 16731 ft | 450 kts | 110° |
| 2026-04-25 14:09 | 25.32365 | 56.16595 | 16837 ft | 450 kts | 111° |
| 2026-04-25 14:10 | 25.30582 | 56.22032 | 17338 ft | 455 kts | 112° |
| 2026-04-25 14:10 | 25.29499 | 56.25328 | 17667 ft | 458 kts | 111° |
| 2026-04-25 14:10 | 25.28408 | 56.28643 | 18004 ft | 460 kts | 112° |
| 2026-04-25 14:10 | 25.27310 | 56.31975 | 18285 ft | 462 kts | 111° |
| 2026-04-25 14:11 | 25.26209 | 56.35317 | 18572 ft | 464 kts | 111° |
| 2026-04-25 14:11 | 25.25103 | 56.38675 | 18845 ft | 466 kts | 111° |
| 2026-04-25 14:11 | 25.23986 | 56.42057 | 19141 ft | 468 kts | 112° |
| 2026-04-25 14:11 | 25.22868 | 56.45444 | 19456 ft | 470 kts | 111° |
| 2026-04-25 14:12 | 25.21744 | 56.48852 | 19779 ft | 473 kts | 112° |
| 2026-04-25 14:12 | 25.20613 | 56.52269 | 20099 ft | 475 kts | 112° |
| 2026-04-25 14:12 | 25.19486 | 56.55660 | 20409 ft | 477 kts | 112° |
| 2026-04-25 14:12 | 25.18300 | 56.59079 | 20762 ft | 478 kts | 114° |
| 2026-04-25 14:13 | 25.17023 | 56.62480 | 21200 ft | 480 kts | 114° |
| 2026-04-25 14:13 | 25.15739 | 56.65893 | 21629 ft | 482 kts | 114° |
| 2026-04-25 14:13 | 25.14446 | 56.69319 | 22035 ft | 485 kts | 114° |
| 2026-04-25 14:13 | 25.13148 | 56.72765 | 22402 ft | 488 kts | 114° |
| 2026-04-25 14:14 | 25.11841 | 56.76235 | 22750 ft | 490 kts | 114° |
| 2026-04-25 14:14 | 25.10526 | 56.79717 | 23077 ft | 493 kts | 114° |
| 2026-04-25 14:14 | 25.09205 | 56.83218 | 23405 ft | 495 kts | 114° |
| 2026-04-25 14:14 | 25.07873 | 56.86731 | 23700 ft | 496 kts | 114° |
| 2026-04-25 14:15 | 25.06539 | 56.90246 | 23983 ft | 497 kts | 114° |
| 2026-04-25 14:15 | 25.06089 | 56.91430 | 24092 ft | 497 kts | 114° |
| 2026-04-25 14:15 | 25.04321 | 56.96087 | 24509 ft | 497 kts | 114° |
| 2026-04-25 14:15 | 25.02991 | 56.99599 | 24826 ft | 496 kts | 114° |
| 2026-04-25 14:16 | 25.01654 | 57.03117 | 25154 ft | 496 kts | 114° |
| 2026-04-25 14:16 | 25.00322 | 57.06627 | 25489 ft | 496 kts | 114° |
| 2026-04-25 14:16 | 24.98991 | 57.10134 | 25806 ft | 496 kts | 114° |
| 2026-04-25 14:16 | 24.97656 | 57.13646 | 26144 ft | 496 kts | 114° |
| 2026-04-25 14:17 | 24.96321 | 57.17155 | 26466 ft | 496 kts | 114° |
| 2026-04-25 14:17 | 24.94984 | 57.20659 | 26802 ft | 496 kts | 114° |
| 2026-04-25 14:17 | 24.93647 | 57.24157 | 27145 ft | 495 kts | 114° |
| 2026-04-25 14:17 | 24.92314 | 57.27649 | 27486 ft | 495 kts | 114° |
| 2026-04-25 14:18 | 24.90975 | 57.31147 | 27825 ft | 495 kts | 114° |
| 2026-04-25 14:18 | 24.89635 | 57.34642 | 28161 ft | 494 kts | 114° |
| 2026-04-25 14:18 | 24.88298 | 57.38124 | 28478 ft | 494 kts | 114° |
| 2026-04-25 14:18 | 24.86972 | 57.41566 | 28846 ft | 493 kts | 114° |
| 2026-04-25 14:19 | 24.85640 | 57.45030 | 29216 ft | 491 kts | 114° |
| 2026-04-25 14:19 | 24.84309 | 57.48500 | 29560 ft | 491 kts | 114° |
| 2026-04-25 14:19 | 24.82981 | 57.51958 | 29879 ft | 490 kts | 114° |
| 2026-04-25 14:19 | 24.81650 | 57.55414 | 30160 ft | 490 kts | 114° |
| 2026-04-25 14:20 | 24.80316 | 57.58875 | 30409 ft | 491 kts | 114° |
| 2026-04-25 14:20 | 24.79438 | 57.61159 | 30579 ft | 491 kts | 114° |
| 2026-04-25 14:20 | 24.77651 | 57.65792 | 30933 ft | 490 kts | 114° |
| 2026-04-25 14:20 | 24.76321 | 57.69238 | 31252 ft | 489 kts | 114° |
| 2026-04-25 14:21 | 24.74997 | 57.72673 | 31547 ft | 488 kts | 114° |
| 2026-04-25 14:21 | 24.73668 | 57.76108 | 31792 ft | 488 kts | 114° |
| 2026-04-25 14:21 | 24.72457 | 57.79599 | 32011 ft | 489 kts | 110° |
| 2026-04-25 14:21 | 24.71349 | 57.83142 | 32253 ft | 489 kts | 110° |
| 2026-04-25 14:22 | 24.70250 | 57.86683 | 32474 ft | 489 kts | 110° |
| 2026-04-25 14:22 | 24.69162 | 57.90178 | 32694 ft | 489 kts | 110° |
| 2026-04-25 14:22 | 24.68058 | 57.93718 | 32918 ft | 489 kts | 110° |
| 2026-04-25 14:22 | 24.66951 | 57.97254 | 33206 ft | 487 kts | 110° |
| 2026-04-25 14:23 | 24.65851 | 58.00769 | 33442 ft | 486 kts | 110° |
| 2026-04-25 14:23 | 24.64748 | 58.04289 | 33653 ft | 486 kts | 110° |
| 2026-04-25 14:23 | 24.63651 | 58.07799 | 33837 ft | 486 kts | 110° |
| 2026-04-25 14:23 | 24.62549 | 58.11315 | 33993 ft | 486 kts | 110° |
| 2026-04-25 14:24 | 24.61442 | 58.14828 | 34129 ft | 487 kts | 110° |
| 2026-04-25 14:24 | 24.60330 | 58.18349 | 34278 ft | 487 kts | 110° |
| 2026-04-25 14:24 | 24.59221 | 58.21864 | 34421 ft | 487 kts | 110° |
| 2026-04-25 14:24 | 24.58114 | 58.25380 | 34596 ft | 486 kts | 110° |
| 2026-04-25 14:25 | 24.57006 | 58.28890 | 34747 ft | 486 kts | 110° |
| 2026-04-25 14:25 | 24.55896 | 58.32402 | 34865 ft | 487 kts | 109° |
| 2026-04-25 14:25 | 24.54787 | 58.35916 | 34884 ft | 487 kts | 109° |
| 2026-04-25 14:26 | 24.52566 | 58.42944 | 34851 ft | 487 kts | 109° |
| 2026-04-25 14:26 | 24.50361 | 58.49919 | 34843 ft | 485 kts | 109° |
| 2026-04-25 14:27 | 24.48134 | 58.56918 | 34841 ft | 485 kts | 110° |
| 2026-04-25 14:27 | 24.45910 | 58.63897 | 34846 ft | 485 kts | 109° |
| 2026-04-25 14:28 | 24.43697 | 58.70880 | 34845 ft | 485 kts | 109° |
| 2026-04-25 14:28 | 24.41273 | 58.77779 | 34845 ft | 484 kts | 116° |
| 2026-04-25 14:29 | 24.38328 | 58.84415 | 34849 ft | 484 kts | 117° |
| 2026-04-25 14:29 | 24.35385 | 58.91008 | 34849 ft | 484 kts | 116° |
| 2026-04-25 14:30 | 24.32430 | 58.97639 | 34851 ft | 483 kts | 116° |
| 2026-04-25 14:30 | 24.27999 | 59.07565 | 34850 ft | 480 kts | 116° |
| 2026-04-25 14:31 | 24.25058 | 59.14137 | 34852 ft | 479 kts | 116° |
| 2026-04-25 14:31 | 24.22109 | 59.20713 | 34852 ft | 480 kts | 116° |
| 2026-04-25 14:32 | 24.19183 | 59.27239 | 34852 ft | 480 kts | 116° |
| 2026-04-25 14:32 | 24.16237 | 59.33799 | 34851 ft | 479 kts | 116° |
| 2026-04-25 14:33 | 24.13289 | 59.40351 | 34851 ft | 480 kts | 116° |
| 2026-04-25 14:33 | 24.10342 | 59.46895 | 34854 ft | 480 kts | 116° |
| 2026-04-25 14:34 | 24.07392 | 59.53432 | 34853 ft | 479 kts | 117° |
| 2026-04-25 14:34 | 24.04438 | 59.59957 | 34858 ft | 479 kts | 116° |
| 2026-04-25 14:35 | 24.01494 | 59.66482 | 34851 ft | 478 kts | 116° |
| 2026-04-25 14:35 | 23.98551 | 59.72995 | 34853 ft | 478 kts | 117° |
| 2026-04-25 14:36 | 23.95599 | 59.79503 | 34859 ft | 477 kts | 117° |
| 2026-04-25 14:36 | 23.92641 | 59.86000 | 34857 ft | 478 kts | 117° |
| 2026-04-25 14:37 | 23.89707 | 59.92460 | 34856 ft | 474 kts | 117° |
| 2026-04-25 14:37 | 23.86768 | 59.98921 | 34857 ft | 474 kts | 117° |
| 2026-04-25 14:38 | 23.83817 | 60.05384 | 34859 ft | 475 kts | 117° |
| 2026-04-25 14:38 | 23.80871 | 60.11841 | 34858 ft | 475 kts | 117° |
| 2026-04-25 14:39 | 23.77924 | 60.18286 | 34863 ft | 474 kts | 116° |
| 2026-04-25 14:39 | 23.74992 | 60.24685 | 34859 ft | 471 kts | 117° |
| 2026-04-25 14:40 | 23.72061 | 60.31072 | 34859 ft | 470 kts | 116° |
| 2026-04-25 14:40 | 23.69133 | 60.37447 | 34867 ft | 471 kts | 116° |
| 2026-04-25 14:41 | 23.66204 | 60.43825 | 34855 ft | 470 kts | 116° |
| 2026-04-25 14:41 | 23.63274 | 60.50186 | 34856 ft | 468 kts | 116° |
| 2026-04-25 14:42 | 23.60839 | 60.55466 | 34862 ft | 468 kts | 117° |
| 2026-04-25 14:42 | 23.57437 | 60.62839 | 34858 ft | 469 kts | 117° |
| 2026-04-25 14:43 | 23.54502 | 60.69188 | 34853 ft | 468 kts | 116° |
| 2026-04-25 14:43 | 23.51572 | 60.75522 | 34860 ft | 468 kts | 116° |
| 2026-04-25 14:44 | 23.48638 | 60.81854 | 34852 ft | 468 kts | 116° |
| 2026-04-25 14:44 | 23.45701 | 60.88187 | 34863 ft | 468 kts | 116° |
| 2026-04-25 14:45 | 23.42756 | 60.94511 | 34856 ft | 468 kts | 117° |
| 2026-04-25 14:45 | 23.39818 | 61.00831 | 34858 ft | 468 kts | 117° |
| 2026-04-25 14:46 | 23.36875 | 61.07148 | 34863 ft | 469 kts | 116° |
| 2026-04-25 14:46 | 23.33928 | 61.13468 | 34872 ft | 469 kts | 116° |
| 2026-04-25 14:47 | 23.31815 | 61.18871 | 34853 ft | 467 kts | 104° |
| 2026-04-25 14:47 | 23.30837 | 61.26988 | 34861 ft | 466 kts | 94° |
| 2026-04-25 14:48 | 23.30274 | 61.34005 | 34865 ft | 466 kts | 94° |
| 2026-04-25 14:48 | 23.29652 | 61.41014 | 34865 ft | 465 kts | 94° |
| 2026-04-25 14:49 | 23.29025 | 61.48019 | 34864 ft | 466 kts | 94° |
| 2026-04-25 14:49 | 23.28399 | 61.55032 | 34865 ft | 466 kts | 94° |
| 2026-04-25 14:50 | 23.27769 | 61.62034 | 34862 ft | 465 kts | 94° |
| 2026-04-25 14:50 | 23.27129 | 61.69041 | 34865 ft | 465 kts | 94° |
| 2026-04-25 14:51 | 23.26491 | 61.76045 | 34862 ft | 465 kts | 94° |
| 2026-04-25 14:51 | 23.25846 | 61.83039 | 34871 ft | 465 kts | 95° |
| 2026-04-25 14:52 | 23.25205 | 61.90043 | 34870 ft | 465 kts | 95° |
| 2026-04-25 14:52 | 23.24663 | 61.95852 | 34875 ft | 464 kts | 94° |
| 2026-04-25 14:53 | 23.23910 | 62.03957 | 34866 ft | 463 kts | 94° |
| 2026-04-25 14:53 | 23.23253 | 62.10976 | 34863 ft | 463 kts | 94° |
| 2026-04-25 14:54 | 23.22602 | 62.17906 | 34867 ft | 463 kts | 94° |
| 2026-04-25 14:54 | 23.21945 | 62.24879 | 34868 ft | 463 kts | 94° |
| 2026-04-25 14:55 | 23.21281 | 62.31853 | 34873 ft | 463 kts | 94° |
| 2026-04-25 14:55 | 23.20620 | 62.38818 | 34878 ft | 463 kts | 94° |
| 2026-04-25 14:56 | 23.19953 | 62.45792 | 34866 ft | 463 kts | 95° |
| 2026-04-25 14:56 | 23.19286 | 62.52753 | 34872 ft | 463 kts | 95° |
| 2026-04-25 14:57 | 23.18609 | 62.59729 | 34866 ft | 464 kts | 95° |
| 2026-04-25 14:57 | 23.17921 | 62.66706 | 34868 ft | 464 kts | 95° |
| 2026-04-25 14:58 | 23.17248 | 62.73677 | 34878 ft | 464 kts | 95° |
| 2026-04-25 14:58 | 23.16572 | 62.80612 | 34872 ft | 464 kts | 95° |
| 2026-04-25 14:59 | 23.15898 | 62.87586 | 34874 ft | 465 kts | 95° |
| 2026-04-25 14:59 | 23.15215 | 62.94576 | 34864 ft | 465 kts | 95° |
| 2026-04-25 15:00 | 23.14517 | 63.01556 | 34874 ft | 464 kts | 95° |
| 2026-04-25 15:00 | 23.13822 | 63.08533 | 34873 ft | 464 kts | 95° |
| 2026-04-25 15:01 | 23.13131 | 63.15497 | 34868 ft | 462 kts | 95° |
| 2026-04-25 15:01 | 23.12432 | 63.22435 | 34873 ft | 462 kts | 95° |
| 2026-04-25 15:02 | 23.11847 | 63.28197 | 34871 ft | 462 kts | 95° |
| 2026-04-25 15:02 | 23.11146 | 63.35133 | 34876 ft | 462 kts | 95° |
| 2026-04-25 15:03 | 23.10439 | 63.42072 | 34867 ft | 462 kts | 95° |
| 2026-04-25 15:03 | 23.09729 | 63.48990 | 34869 ft | 460 kts | 95° |
| 2026-04-25 15:04 | 23.09019 | 63.55908 | 34871 ft | 460 kts | 94° |
| 2026-04-25 15:04 | 23.08305 | 63.62818 | 34867 ft | 461 kts | 95° |
| 2026-04-25 15:05 | 23.07596 | 63.69692 | 34870 ft | 460 kts | 94° |
| 2026-04-25 15:06 | 23.06512 | 63.80107 | 34875 ft | 461 kts | 94° |
| 2026-04-25 15:06 | 23.05787 | 63.87023 | 34874 ft | 461 kts | 94° |
| 2026-04-25 15:07 | 23.05090 | 63.93896 | 34874 ft | 461 kts | 94° |
| 2026-04-25 15:07 | 23.04393 | 64.00811 | 34879 ft | 461 kts | 94° |
| 2026-04-25 15:08 | 23.03683 | 64.07735 | 34868 ft | 461 kts | 94° |
| 2026-04-25 15:08 | 23.02973 | 64.14651 | 34866 ft | 460 kts | 94° |
| 2026-04-25 15:09 | 23.02263 | 64.21567 | 34886 ft | 461 kts | 94° |
| 2026-04-25 15:09 | 23.01190 | 64.31896 | 34872 ft | 461 kts | 94° |
| 2026-04-25 15:10 | 23.00474 | 64.38802 | 34875 ft | 460 kts | 94° |
| 2026-04-25 15:11 | 22.99385 | 64.49145 | 34871 ft | 460 kts | 95° |
| 2026-04-25 15:11 | 22.98662 | 64.56046 | 34869 ft | 460 kts | 94° |
| 2026-04-25 15:12 | 22.97574 | 64.66400 | 34867 ft | 460 kts | 95° |
| 2026-04-25 15:12 | 22.96959 | 64.72129 | 34867 ft | 460 kts | 95° |
| 2026-04-25 15:13 | 22.95799 | 64.83653 | 34869 ft | 459 kts | 90° |
| 2026-04-25 15:14 | 22.95801 | 64.90562 | 34872 ft | 458 kts | 88° |
| 2026-04-25 15:14 | 22.95850 | 64.97472 | 34874 ft | 458 kts | 88° |
| 2026-04-25 15:15 | 22.95885 | 65.04313 | 34868 ft | 455 kts | 88° |
| 2026-04-25 15:15 | 22.95925 | 65.11185 | 34868 ft | 455 kts | 88° |
| 2026-04-25 15:16 | 22.95957 | 65.18051 | 34867 ft | 455 kts | 88° |
| 2026-04-25 15:16 | 22.96003 | 65.28331 | 34869 ft | 454 kts | 88° |
| 2026-04-25 15:17 | 22.96044 | 65.38589 | 34868 ft | 453 kts | 88° |
| 2026-04-25 15:18 | 22.96063 | 65.45428 | 34868 ft | 453 kts | 88° |
| 2026-04-25 15:18 | 22.96091 | 65.55641 | 34867 ft | 453 kts | 88° |
| 2026-04-25 15:19 | 22.96096 | 65.61369 | 34871 ft | 453 kts | 88° |
| 2026-04-25 15:19 | 22.96096 | 65.69316 | 34870 ft | 453 kts | 88° |
| 2026-04-25 15:20 | 22.96114 | 65.76150 | 34867 ft | 453 kts | 88° |
| 2026-04-25 15:20 | 22.96124 | 65.82989 | 34867 ft | 453 kts | 88° |
| 2026-04-25 15:21 | 22.96123 | 65.89823 | 34864 ft | 453 kts | 88° |
| 2026-04-25 15:21 | 22.96115 | 65.96660 | 34869 ft | 453 kts | 88° |
| 2026-04-25 15:22 | 22.96116 | 66.03498 | 34867 ft | 453 kts | 88° |
| 2026-04-25 15:22 | 22.96112 | 66.10334 | 34867 ft | 453 kts | 88° |
| 2026-04-25 15:23 | 22.96090 | 66.17177 | 34867 ft | 453 kts | 88° |
| 2026-04-25 15:23 | 22.96073 | 66.23965 | 34867 ft | 453 kts | 88° |
| 2026-04-25 15:24 | 22.96054 | 66.30817 | 34865 ft | 453 kts | 88° |
| 2026-04-25 15:24 | 22.96039 | 66.36495 | 34865 ft | 453 kts | 88° |
| 2026-04-25 15:25 | 22.96031 | 66.44446 | 34864 ft | 453 kts | 88° |
| 2026-04-25 15:25 | 22.96010 | 66.51281 | 34864 ft | 453 kts | 88° |
| 2026-04-25 15:26 | 22.95979 | 66.58136 | 34869 ft | 453 kts | 88° |
| 2026-04-25 15:26 | 22.95948 | 66.64962 | 34864 ft | 453 kts | 88° |
| 2026-04-25 15:27 | 22.95914 | 66.71790 | 34864 ft | 452 kts | 88° |
| 2026-04-25 15:28 | 22.95856 | 66.81994 | 34864 ft | 452 kts | 88° |
| 2026-04-25 15:28 | 22.95819 | 66.88871 | 34867 ft | 452 kts | 88° |
| 2026-04-25 15:29 | 22.95769 | 66.95656 | 34867 ft | 453 kts | 88° |
| 2026-04-25 15:29 | 22.95761 | 67.02499 | 34864 ft | 453 kts | 88° |
| 2026-04-25 15:30 | 22.95790 | 67.09333 | 34869 ft | 450 kts | 88° |
| 2026-04-25 15:30 | 22.95806 | 67.16134 | 34868 ft | 450 kts | 88° |
| 2026-04-25 15:31 | 22.95822 | 67.22934 | 34871 ft | 450 kts | 88° |
| 2026-04-25 15:31 | 22.95834 | 67.29723 | 34865 ft | 450 kts | 88° |
| 2026-04-25 15:32 | 22.95832 | 67.36469 | 34864 ft | 450 kts | 88° |
| 2026-04-25 15:32 | 22.95829 | 67.43256 | 34862 ft | 450 kts | 88° |
| 2026-04-25 15:33 | 22.95823 | 67.53440 | 34866 ft | 450 kts | 88° |
| 2026-04-25 15:33 | 22.95820 | 67.60225 | 34867 ft | 450 kts | 88° |
| 2026-04-25 15:34 | 22.95807 | 67.67012 | 34868 ft | 450 kts | 88° |
| 2026-04-25 15:34 | 22.95808 | 67.71509 | 34867 ft | 450 kts | 88° |
| 2026-04-25 15:35 | 22.95773 | 67.83946 | 34865 ft | 450 kts | 88° |
| 2026-04-25 15:36 | 22.95757 | 67.94132 | 34867 ft | 450 kts | 88° |
| 2026-04-25 15:36 | 22.95764 | 68.00923 | 34867 ft | 450 kts | 88° |
| 2026-04-25 15:37 | 22.95762 | 68.07721 | 34867 ft | 450 kts | 88° |
| 2026-04-25 15:37 | 22.95772 | 68.14500 | 34867 ft | 449 kts | 88° |
| 2026-04-25 15:38 | 22.95779 | 68.21284 | 34868 ft | 450 kts | 88° |
| 2026-04-25 15:38 | 22.95778 | 68.28074 | 34868 ft | 450 kts | 88° |
| 2026-04-25 15:39 | 22.95769 | 68.34821 | 34870 ft | 450 kts | 88° |
| 2026-04-25 15:39 | 22.95554 | 68.41607 | 34871 ft | 451 kts | 91° |
| 2026-04-25 15:40 | 22.95297 | 68.46156 | 34871 ft | 451 kts | 91° |
| 2026-04-25 15:40 | 22.94771 | 68.55185 | 34871 ft | 451 kts | 91° |
| 2026-04-25 15:41 | 22.94378 | 68.61990 | 34870 ft | 452 kts | 91° |
| 2026-04-25 15:41 | 22.93979 | 68.68784 | 34870 ft | 452 kts | 91° |
| 2026-04-25 15:42 | 22.93586 | 68.75589 | 34870 ft | 452 kts | 91° |
| 2026-04-25 15:42 | 22.93186 | 68.82381 | 34870 ft | 451 kts | 91° |
| 2026-04-25 15:43 | 22.92785 | 68.89144 | 34872 ft | 452 kts | 91° |
| 2026-04-25 15:43 | 22.92376 | 68.95945 | 34873 ft | 451 kts | 91° |
| 2026-04-25 15:44 | 22.91966 | 69.02749 | 34874 ft | 452 kts | 91° |
| 2026-04-25 15:44 | 22.91549 | 69.09545 | 34873 ft | 451 kts | 91° |
| 2026-04-25 15:45 | 22.91134 | 69.16346 | 34876 ft | 451 kts | 91° |
| 2026-04-25 15:45 | 22.90853 | 69.20856 | 34879 ft | 452 kts | 91° |
| 2026-04-25 15:46 | 22.90288 | 69.29958 | 34874 ft | 452 kts | 91° |
| 2026-04-25 15:46 | 22.89862 | 69.36730 | 34874 ft | 452 kts | 91° |
| 2026-04-25 15:47 | 22.89436 | 69.43532 | 34870 ft | 452 kts | 91° |
| 2026-04-25 15:47 | 22.89001 | 69.50336 | 34870 ft | 452 kts | 91° |
| 2026-04-25 15:48 | 22.88562 | 69.57144 | 34873 ft | 453 kts | 91° |
| 2026-04-25 15:48 | 22.88120 | 69.63960 | 34873 ft | 453 kts | 91° |
| 2026-04-25 15:49 | 22.87680 | 69.70775 | 34870 ft | 453 kts | 91° |
| 2026-04-25 15:49 | 22.87288 | 69.77592 | 34870 ft | 453 kts | 91° |
| 2026-04-25 15:50 | 22.86894 | 69.84411 | 34862 ft | 453 kts | 91° |
| 2026-04-25 15:50 | 22.86501 | 69.91186 | 34862 ft | 453 kts | 91° |
| 2026-04-25 15:51 | 22.86234 | 69.95744 | 34857 ft | 453 kts | 91° |
| 2026-04-25 15:51 | 22.85761 | 70.03712 | 34859 ft | 453 kts | 91° |
| 2026-04-25 15:52 | 22.85353 | 70.10523 | 34858 ft | 453 kts | 91° |
| 2026-04-25 15:52 | 22.84942 | 70.17343 | 34860 ft | 453 kts | 91° |
| 2026-04-25 15:53 | 22.84533 | 70.24120 | 34861 ft | 453 kts | 91° |
| 2026-04-25 15:53 | 22.84117 | 70.30938 | 34861 ft | 453 kts | 91° |
| 2026-04-25 15:54 | 22.83689 | 70.37761 | 34861 ft | 453 kts | 91° |
| 2026-04-25 15:54 | 22.83262 | 70.44585 | 34861 ft | 453 kts | 91° |
| 2026-04-25 15:55 | 22.82829 | 70.51412 | 34862 ft | 452 kts | 91° |
| 2026-04-25 15:55 | 22.82407 | 70.58215 | 34862 ft | 452 kts | 91° |
| 2026-04-25 15:56 | 22.81990 | 70.65005 | 34859 ft | 452 kts | 91° |
| 2026-04-25 15:56 | 22.81570 | 70.71761 | 34859 ft | 452 kts | 91° |
| 2026-04-25 15:57 | 22.81137 | 70.78561 | 34860 ft | 452 kts | 91° |
| 2026-04-25 15:57 | 22.81113 | 70.85336 | 34861 ft | 449 kts | 80° |
| 2026-04-25 15:58 | 22.82102 | 70.92004 | 34860 ft | 448 kts | 78° |
| 2026-04-25 15:58 | 22.83132 | 70.98664 | 34856 ft | 448 kts | 78° |
| 2026-04-25 15:59 | 22.84133 | 71.05338 | 34848 ft | 448 kts | 78° |
| 2026-04-25 15:59 | 22.85128 | 71.12013 | 34848 ft | 448 kts | 79° |
| 2026-04-25 16:00 | 22.85951 | 71.17552 | 34840 ft | 448 kts | 78° |
| 2026-04-25 16:00 | 22.87110 | 71.25350 | 34841 ft | 448 kts | 79° |
| 2026-04-25 16:01 | 22.87867 | 71.32061 | 34831 ft | 448 kts | 79° |
| 2026-04-25 16:01 | 22.88888 | 71.38681 | 34831 ft | 448 kts | 78° |
| 2026-04-25 16:02 | 22.89907 | 71.45339 | 34829 ft | 448 kts | 78° |
| 2026-04-25 16:02 | 22.90892 | 71.52027 | 34825 ft | 448 kts | 79° |
| 2026-04-25 16:03 | 22.91869 | 71.58709 | 34822 ft | 449 kts | 79° |
| 2026-04-25 16:03 | 22.92847 | 71.65414 | 34820 ft | 450 kts | 79° |
| 2026-04-25 16:04 | 22.93822 | 71.72108 | 34811 ft | 449 kts | 79° |
| 2026-04-25 16:04 | 22.94794 | 71.78814 | 34809 ft | 450 kts | 79° |
| 2026-04-25 16:05 | 22.95758 | 71.85477 | 34806 ft | 450 kts | 79° |
| 2026-04-25 16:06 | 22.97210 | 71.95552 | 34807 ft | 451 kts | 79° |
| 2026-04-25 16:06 | 22.98175 | 72.02277 | 34797 ft | 451 kts | 79° |
| 2026-04-25 16:07 | 22.99140 | 72.09020 | 34798 ft | 451 kts | 79° |
| 2026-04-25 16:07 | 23.00538 | 72.15630 | 34793 ft | 450 kts | 75° |
| 2026-04-25 16:08 | 23.01712 | 72.22310 | 34793 ft | 451 kts | 79° |
| 2026-04-25 16:08 | 23.02678 | 72.29035 | 34788 ft | 450 kts | 79° |
| 2026-04-25 16:09 | 23.03615 | 72.35700 | 34786 ft | 450 kts | 79° |
| 2026-04-25 16:09 | 23.04562 | 72.42425 | 34785 ft | 450 kts | 79° |
| 2026-04-25 16:10 | 23.05505 | 72.49147 | 34787 ft | 450 kts | 79° |
| 2026-04-25 16:10 | 23.06445 | 72.55859 | 34788 ft | 450 kts | 79° |
| 2026-04-25 16:11 | 23.06947 | 72.62619 | 34785 ft | 451 kts | 94° |
| 2026-04-25 16:11 | 23.06316 | 72.65968 | 34788 ft | 454 kts | 107° |
| 2026-04-25 16:11 | 23.05244 | 72.69198 | 34793 ft | 454 kts | 108° |
| 2026-04-25 16:12 | 23.03182 | 72.75681 | 34788 ft | 454 kts | 106° |
| 2026-04-25 16:12 | 23.01301 | 72.82169 | 34785 ft | 453 kts | 105° |
| 2026-04-25 16:13 | 22.99436 | 72.88707 | 34783 ft | 453 kts | 105° |
| 2026-04-25 16:13 | 22.97570 | 72.95251 | 34789 ft | 453 kts | 105° |
| 2026-04-25 16:14 | 22.95686 | 73.01801 | 34786 ft | 455 kts | 106° |
| 2026-04-25 16:14 | 22.93799 | 73.08354 | 34783 ft | 455 kts | 105° |
| 2026-04-25 16:15 | 22.91924 | 73.14908 | 34786 ft | 455 kts | 105° |
| 2026-04-25 16:15 | 22.90020 | 73.21461 | 34787 ft | 455 kts | 106° |
| 2026-04-25 16:16 | 22.88100 | 73.28005 | 34790 ft | 455 kts | 106° |
| 2026-04-25 16:16 | 22.86177 | 73.34563 | 34790 ft | 457 kts | 106° |
| 2026-04-25 16:17 | 22.84294 | 73.41093 | 34791 ft | 455 kts | 105° |
| 2026-04-25 16:17 | 22.82420 | 73.47644 | 34792 ft | 455 kts | 106° |
| 2026-04-25 16:18 | 22.80501 | 73.54185 | 34804 ft | 455 kts | 106° |
| 2026-04-25 16:18 | 22.78590 | 73.60722 | 34804 ft | 455 kts | 106° |
| 2026-04-25 16:19 | 22.76694 | 73.67270 | 34817 ft | 455 kts | 106° |
| 2026-04-25 16:19 | 22.74775 | 73.73822 | 34817 ft | 456 kts | 106° |
| 2026-04-25 16:20 | 22.71863 | 73.83625 | 34827 ft | 456 kts | 108° |
| 2026-04-25 16:21 | 22.68777 | 73.93343 | 34829 ft | 455 kts | 103° |
| 2026-04-25 16:21 | 22.67061 | 73.99938 | 34835 ft | 455 kts | 105° |
| 2026-04-25 16:22 | 22.65163 | 74.06491 | 34838 ft | 456 kts | 106° |
| 2026-04-25 16:22 | 22.63250 | 74.12985 | 34849 ft | 456 kts | 106° |
| 2026-04-25 16:23 | 22.61312 | 74.19503 | 34850 ft | 454 kts | 107° |
| 2026-04-25 16:23 | 22.59375 | 74.26012 | 34851 ft | 454 kts | 107° |
| 2026-04-25 16:24 | 22.57459 | 74.32531 | 34855 ft | 454 kts | 107° |
| 2026-04-25 16:24 | 22.55538 | 74.39040 | 34856 ft | 455 kts | 107° |
| 2026-04-25 16:25 | 22.53625 | 74.45510 | 34857 ft | 454 kts | 107° |
| 2026-04-25 16:25 | 22.51695 | 74.52026 | 34865 ft | 455 kts | 107° |
| 2026-04-25 16:26 | 22.49763 | 74.58535 | 34863 ft | 455 kts | 107° |
| 2026-04-25 16:26 | 22.47825 | 74.65051 | 34869 ft | 454 kts | 107° |
| 2026-04-25 16:27 | 22.45888 | 74.71561 | 34869 ft | 455 kts | 107° |
| 2026-04-25 16:27 | 22.43951 | 74.78070 | 34866 ft | 455 kts | 107° |
| 2026-04-25 16:28 | 22.42008 | 74.84568 | 34872 ft | 454 kts | 107° |
| 2026-04-25 16:28 | 22.40074 | 74.91030 | 34876 ft | 454 kts | 107° |
| 2026-04-25 16:29 | 22.38122 | 74.97551 | 34865 ft | 459 kts | 108° |
| 2026-04-25 16:29 | 22.36147 | 75.04132 | 34866 ft | 460 kts | 108° |
| 2026-04-25 16:30 | 22.34488 | 75.09615 | 34866 ft | 465 kts | 109° |
| 2026-04-25 16:30 | 22.32158 | 75.17391 | 34874 ft | 466 kts | 109° |
| 2026-04-25 16:31 | 22.30151 | 75.24050 | 34880 ft | 466 kts | 109° |
| 2026-04-25 16:31 | 22.28157 | 75.30654 | 34873 ft | 466 kts | 109° |
| 2026-04-25 16:32 | 22.26146 | 75.37302 | 34882 ft | 466 kts | 109° |
| 2026-04-25 16:32 | 22.24131 | 75.43957 | 34874 ft | 468 kts | 109° |
| 2026-04-25 16:33 | 22.22103 | 75.50647 | 34886 ft | 469 kts | 109° |
| 2026-04-25 16:33 | 22.20062 | 75.57343 | 34886 ft | 469 kts | 109° |
| 2026-04-25 16:34 | 22.18028 | 75.64033 | 34881 ft | 469 kts | 109° |
| 2026-04-25 16:34 | 22.15986 | 75.70724 | 34886 ft | 469 kts | 109° |
| 2026-04-25 16:35 | 22.13936 | 75.77425 | 34875 ft | 474 kts | 111° |
| 2026-04-25 16:35 | 22.11850 | 75.84201 | 34877 ft | 484 kts | 112° |
| 2026-04-25 16:36 | 22.09715 | 75.91152 | 34889 ft | 490 kts | 112° |
| 2026-04-25 16:36 | 22.07583 | 75.98137 | 34876 ft | 490 kts | 112° |
| 2026-04-25 16:37 | 22.05344 | 76.05087 | 34878 ft | 490 kts | 114° |
| 2026-04-25 16:37 | 22.03058 | 76.12007 | 34876 ft | 490 kts | 114° |
| 2026-04-25 16:38 | 22.00764 | 76.18944 | 34870 ft | 496 kts | 115° |
| 2026-04-25 16:38 | 21.98458 | 76.25914 | 34870 ft | 497 kts | 115° |
| 2026-04-25 16:39 | 21.96138 | 76.32930 | 34874 ft | 497 kts | 115° |
| 2026-04-25 16:39 | 21.94198 | 76.38765 | 34865 ft | 497 kts | 115° |
| 2026-04-25 16:40 | 21.91863 | 76.45766 | 34866 ft | 497 kts | 115° |
| 2026-04-25 16:40 | 21.89522 | 76.52786 | 34842 ft | 500 kts | 116° |
| 2026-04-25 16:41 | 21.87143 | 76.59907 | 34864 ft | 510 kts | 116° |
| 2026-04-25 16:41 | 21.83537 | 76.70717 | 34866 ft | 512 kts | 116° |
| 2026-04-25 16:42 | 21.81143 | 76.77879 | 34869 ft | 512 kts | 116° |
| 2026-04-25 16:42 | 21.78732 | 76.85092 | 34877 ft | 512 kts | 116° |
| 2026-04-25 16:43 | 21.76313 | 76.92312 | 34879 ft | 513 kts | 116° |
| 2026-04-25 16:43 | 21.73887 | 76.99491 | 34881 ft | 513 kts | 116° |
| 2026-04-25 16:44 | 21.71447 | 77.06702 | 34883 ft | 513 kts | 116° |
| 2026-04-25 16:44 | 21.69020 | 77.13922 | 34896 ft | 513 kts | 116° |
| 2026-04-25 16:45 | 21.66587 | 77.21147 | 34898 ft | 514 kts | 116° |
| 2026-04-25 16:45 | 21.64145 | 77.28364 | 34907 ft | 513 kts | 116° |
| 2026-04-25 16:46 | 21.61699 | 77.35573 | 34904 ft | 514 kts | 116° |
| 2026-04-25 16:46 | 21.59720 | 77.41591 | 34904 ft | 514 kts | 115° |
| 2026-04-25 16:47 | 21.56986 | 77.50101 | 34911 ft | 515 kts | 115° |
| 2026-04-25 16:47 | 21.54649 | 77.57372 | 34904 ft | 515 kts | 115° |
| 2026-04-25 16:48 | 21.52303 | 77.64636 | 34900 ft | 514 kts | 115° |
| 2026-04-25 16:48 | 21.49982 | 77.71903 | 34899 ft | 515 kts | 114° |
| 2026-04-25 16:49 | 21.47759 | 77.79180 | 34895 ft | 516 kts | 114° |
| 2026-04-25 16:49 | 21.45507 | 77.86497 | 34891 ft | 515 kts | 114° |
| 2026-04-25 16:50 | 21.43250 | 77.93794 | 34891 ft | 515 kts | 114° |
| 2026-04-25 16:50 | 21.40990 | 78.01082 | 34885 ft | 513 kts | 114° |
| 2026-04-25 16:51 | 21.38734 | 78.08340 | 34888 ft | 513 kts | 114° |
| 2026-04-25 16:51 | 21.36857 | 78.14362 | 34866 ft | 509 kts | 114° |
| 2026-04-25 16:52 | 21.34227 | 78.22768 | 34870 ft | 508 kts | 114° |
| 2026-04-25 16:52 | 21.31993 | 78.29925 | 34878 ft | 508 kts | 114° |
| 2026-04-25 16:53 | 21.28617 | 78.40704 | 34865 ft | 508 kts | 114° |
| 2026-04-25 16:54 | 21.26358 | 78.47910 | 34868 ft | 508 kts | 114° |
| 2026-04-25 16:54 | 21.24105 | 78.55094 | 34874 ft | 509 kts | 114° |
| 2026-04-25 16:55 | 21.21858 | 78.62239 | 34864 ft | 509 kts | 114° |
| 2026-04-25 16:55 | 21.19594 | 78.69425 | 34859 ft | 510 kts | 114° |
| 2026-04-25 16:56 | 21.17312 | 78.76640 | 34867 ft | 512 kts | 114° |
| 2026-04-25 16:56 | 21.15046 | 78.83866 | 34855 ft | 512 kts | 114° |
| 2026-04-25 16:57 | 21.12775 | 78.91100 | 34854 ft | 512 kts | 114° |
| 2026-04-25 16:57 | 21.10495 | 78.98331 | 34844 ft | 512 kts | 114° |
| 2026-04-25 16:58 | 21.08220 | 79.05559 | 34850 ft | 513 kts | 113° |
| 2026-04-25 16:58 | 21.06118 | 79.12911 | 34861 ft | 517 kts | 112° |
| 2026-04-25 16:59 | 21.04038 | 79.20232 | 34850 ft | 517 kts | 112° |
| 2026-04-25 16:59 | 21.01941 | 79.27599 | 34839 ft | 517 kts | 112° |
| 2026-04-25 17:00 | 20.99842 | 79.34962 | 34841 ft | 517 kts | 112° |
| 2026-04-25 17:00 | 20.97737 | 79.42328 | 34842 ft | 517 kts | 112° |
| 2026-04-25 17:01 | 20.95638 | 79.49661 | 34842 ft | 516 kts | 112° |
| 2026-04-25 17:01 | 20.93528 | 79.57002 | 34839 ft | 516 kts | 112° |
| 2026-04-25 17:02 | 20.91414 | 79.64353 | 34840 ft | 516 kts | 112° |
| 2026-04-25 17:02 | 20.89301 | 79.71695 | 34830 ft | 517 kts | 112° |
| 2026-04-25 17:03 | 20.87187 | 79.79035 | 34834 ft | 516 kts | 112° |
| 2026-04-25 17:03 | 20.85067 | 79.86382 | 34842 ft | 517 kts | 112° |
| 2026-04-25 17:04 | 20.82947 | 79.93698 | 34831 ft | 512 kts | 112° |
| 2026-04-25 17:04 | 20.80844 | 80.00959 | 34836 ft | 511 kts | 112° |
| 2026-04-25 17:05 | 20.78753 | 80.08164 | 34835 ft | 511 kts | 112° |
| 2026-04-25 17:05 | 20.75587 | 80.19028 | 34839 ft | 510 kts | 112° |
| 2026-04-25 17:06 | 20.73472 | 80.26264 | 34844 ft | 510 kts | 112° |
| 2026-04-25 17:06 | 20.71356 | 80.33502 | 34840 ft | 510 kts | 112° |
| 2026-04-25 17:07 | 20.69243 | 80.40732 | 34836 ft | 510 kts | 112° |
| 2026-04-25 17:07 | 20.67127 | 80.47962 | 34845 ft | 510 kts | 112° |
| 2026-04-25 17:08 | 20.64999 | 80.55198 | 34842 ft | 511 kts | 112° |
| 2026-04-25 17:08 | 20.62872 | 80.62446 | 34839 ft | 511 kts | 112° |
| 2026-04-25 17:09 | 20.60753 | 80.69651 | 34842 ft | 511 kts | 112° |
| 2026-04-25 17:09 | 20.58615 | 80.76887 | 34847 ft | 511 kts | 112° |
| 2026-04-25 17:10 | 20.56479 | 80.84130 | 34846 ft | 511 kts | 112° |
| 2026-04-25 17:10 | 20.54343 | 80.91347 | 34833 ft | 509 kts | 112° |
| 2026-04-25 17:11 | 20.52221 | 80.98492 | 34839 ft | 508 kts | 112° |
| 2026-04-25 17:11 | 20.50082 | 81.05686 | 34836 ft | 508 kts | 112° |
| 2026-04-25 17:12 | 20.47946 | 81.12868 | 34841 ft | 508 kts | 112° |
| 2026-04-25 17:12 | 20.45798 | 81.20049 | 34840 ft | 508 kts | 112° |
| 2026-04-25 17:13 | 20.44379 | 81.24809 | 34833 ft | 508 kts | 112° |
| 2026-04-25 17:13 | 20.41600 | 81.34437 | 34833 ft | 507 kts | 111° |
| 2026-04-25 17:14 | 20.39544 | 81.41587 | 34838 ft | 507 kts | 111° |
| 2026-04-25 17:14 | 20.37462 | 81.48766 | 34849 ft | 507 kts | 111° |
| 2026-04-25 17:15 | 20.35377 | 81.55942 | 34845 ft | 507 kts | 111° |
| 2026-04-25 17:15 | 20.33283 | 81.63124 | 34846 ft | 507 kts | 111° |
| 2026-04-25 17:16 | 20.31195 | 81.70302 | 34836 ft | 505 kts | 111° |
| 2026-04-25 17:16 | 20.29126 | 81.77410 | 34837 ft | 505 kts | 111° |
| 2026-04-25 17:17 | 20.27043 | 81.84554 | 34845 ft | 503 kts | 111° |
| 2026-04-25 17:17 | 20.24968 | 81.91657 | 34842 ft | 502 kts | 111° |
| 2026-04-25 17:18 | 20.22631 | 81.98636 | 34837 ft | 496 kts | 122° |
| 2026-04-25 17:18 | 20.20820 | 82.01716 | 34841 ft | 487 kts | 133° |
| 2026-04-25 17:18 | 20.18591 | 82.04398 | 34850 ft | 482 kts | 140° |
| 2026-04-25 17:19 | 20.13912 | 82.09498 | 34852 ft | 482 kts | 140° |
| 2026-04-25 17:19 | 20.09252 | 82.14633 | 34839 ft | 482 kts | 140° |
| 2026-04-25 17:20 | 20.04638 | 82.19753 | 34841 ft | 482 kts | 140° |
| 2026-04-25 17:20 | 19.99996 | 82.24899 | 34850 ft | 482 kts | 140° |
| 2026-04-25 17:21 | 19.95352 | 82.30041 | 34842 ft | 480 kts | 139° |
| 2026-04-25 17:21 | 19.90732 | 82.35153 | 34846 ft | 479 kts | 139° |
| 2026-04-25 17:22 | 19.87638 | 82.38573 | 34843 ft | 479 kts | 139° |
| 2026-04-25 17:22 | 19.81467 | 82.45391 | 34831 ft | 481 kts | 139° |
| 2026-04-25 17:23 | 19.76818 | 82.50518 | 34845 ft | 481 kts | 139° |
| 2026-04-25 17:23 | 19.72171 | 82.55634 | 34835 ft | 481 kts | 139° |
| 2026-04-25 17:24 | 19.67545 | 82.60725 | 34839 ft | 481 kts | 139° |
| 2026-04-25 17:24 | 19.62894 | 82.65839 | 34848 ft | 481 kts | 139° |
| 2026-04-25 17:25 | 19.58245 | 82.70946 | 34846 ft | 481 kts | 139° |
| 2026-04-25 17:25 | 19.53603 | 82.76056 | 34847 ft | 481 kts | 139° |
| 2026-04-25 17:26 | 19.48956 | 82.81158 | 34861 ft | 480 kts | 139° |
| 2026-04-25 17:26 | 19.44314 | 82.86251 | 34868 ft | 480 kts | 139° |
| 2026-04-25 17:27 | 19.39667 | 82.91341 | 34858 ft | 480 kts | 139° |
| 2026-04-25 17:27 | 19.36587 | 82.94709 | 34881 ft | 480 kts | 139° |
| 2026-04-25 17:28 | 19.30399 | 83.01480 | 34884 ft | 481 kts | 139° |
| 2026-04-25 17:28 | 19.25745 | 83.06568 | 34904 ft | 481 kts | 139° |
| 2026-04-25 17:29 | 19.21835 | 83.10835 | 34905 ft | 481 kts | 139° |
| 2026-04-25 17:29 | 19.17204 | 83.15885 | 34903 ft | 482 kts | 139° |
| 2026-04-25 17:30 | 19.12524 | 83.20987 | 34901 ft | 483 kts | 139° |
| 2026-04-25 17:30 | 19.07844 | 83.26085 | 34900 ft | 483 kts | 139° |
| 2026-04-25 17:31 | 19.03156 | 83.31186 | 34885 ft | 483 kts | 139° |
| 2026-04-25 17:31 | 18.98461 | 83.36288 | 34883 ft | 484 kts | 138° |
| 2026-04-25 17:32 | 18.93760 | 83.41393 | 34887 ft | 485 kts | 138° |
| 2026-04-25 17:32 | 18.89060 | 83.46496 | 34873 ft | 484 kts | 139° |
| 2026-04-25 17:33 | 18.84356 | 83.51591 | 34867 ft | 484 kts | 139° |
| 2026-04-25 17:33 | 18.79649 | 83.56689 | 34865 ft | 484 kts | 139° |
| 2026-04-25 17:34 | 18.74971 | 83.61753 | 34864 ft | 484 kts | 139° |
| 2026-04-25 17:34 | 18.70263 | 83.66839 | 34861 ft | 485 kts | 139° |
| 2026-04-25 17:35 | 18.65556 | 83.71928 | 34857 ft | 484 kts | 139° |
| 2026-04-25 17:35 | 18.60851 | 83.77005 | 34856 ft | 484 kts | 139° |
| 2026-04-25 17:36 | 18.56142 | 83.82085 | 34851 ft | 484 kts | 139° |
| 2026-04-25 17:36 | 18.51429 | 83.87166 | 34849 ft | 484 kts | 139° |
| 2026-04-25 17:37 | 18.46719 | 83.92234 | 34840 ft | 484 kts | 139° |
| 2026-04-25 17:37 | 18.42000 | 83.97310 | 34845 ft | 484 kts | 139° |
| 2026-04-25 17:38 | 18.38083 | 84.01524 | 34845 ft | 484 kts | 139° |
| 2026-04-25 17:38 | 18.32599 | 84.07408 | 34839 ft | 484 kts | 139° |
| 2026-04-25 17:39 | 18.27885 | 84.12469 | 34845 ft | 484 kts | 139° |
| 2026-04-25 17:39 | 18.23140 | 84.17500 | 34844 ft | 484 kts | 139° |
| 2026-04-25 17:40 | 18.18394 | 84.22523 | 34848 ft | 484 kts | 139° |
| 2026-04-25 17:40 | 18.13644 | 84.27552 | 34849 ft | 484 kts | 139° |
| 2026-04-25 17:41 | 18.08899 | 84.32576 | 34846 ft | 484 kts | 139° |
| 2026-04-25 17:41 | 18.04149 | 84.37597 | 34847 ft | 484 kts | 139° |
| 2026-04-25 17:42 | 17.99394 | 84.42621 | 34843 ft | 484 kts | 139° |
| 2026-04-25 17:42 | 17.94647 | 84.47633 | 34846 ft | 483 kts | 139° |
| 2026-04-25 17:43 | 17.89926 | 84.52609 | 34843 ft | 483 kts | 139° |
| 2026-04-25 17:43 | 17.85185 | 84.57609 | 34843 ft | 483 kts | 139° |
| 2026-04-25 17:44 | 17.80434 | 84.62610 | 34842 ft | 483 kts | 139° |
| 2026-04-25 17:44 | 17.75682 | 84.67607 | 34841 ft | 483 kts | 139° |
| 2026-04-25 17:45 | 17.71748 | 84.71744 | 34844 ft | 482 kts | 139° |
| 2026-04-25 17:45 | 17.66219 | 84.77554 | 34838 ft | 481 kts | 138° |
| 2026-04-25 17:46 | 17.61551 | 84.82585 | 34842 ft | 481 kts | 137° |
| 2026-04-25 17:46 | 17.56893 | 84.87612 | 34843 ft | 481 kts | 137° |
| 2026-04-25 17:47 | 17.52220 | 84.92634 | 34847 ft | 480 kts | 137° |
| 2026-04-25 17:47 | 17.47583 | 84.97607 | 34847 ft | 480 kts | 138° |
| 2026-04-25 17:48 | 17.40573 | 85.05120 | 34842 ft | 480 kts | 137° |
| 2026-04-25 17:49 | 17.35908 | 85.10126 | 34846 ft | 480 kts | 137° |
| 2026-04-25 17:49 | 17.31252 | 85.15120 | 34847 ft | 478 kts | 137° |
| 2026-04-25 17:50 | 17.26602 | 85.20095 | 34850 ft | 477 kts | 137° |
| 2026-04-25 17:50 | 17.21956 | 85.25064 | 34850 ft | 477 kts | 137° |
| 2026-04-25 17:51 | 17.17310 | 85.30032 | 34852 ft | 478 kts | 137° |
| 2026-04-25 17:51 | 17.12817 | 85.35109 | 34852 ft | 478 kts | 135° |
| 2026-04-25 17:52 | 17.08313 | 85.40243 | 34852 ft | 478 kts | 135° |
| 2026-04-25 17:52 | 17.03807 | 85.45374 | 34852 ft | 479 kts | 135° |
| 2026-04-25 17:53 | 16.99295 | 85.50506 | 34848 ft | 479 kts | 135° |
| 2026-04-25 17:53 | 16.94800 | 85.55614 | 34849 ft | 477 kts | 135° |
| 2026-04-25 17:54 | 16.90334 | 85.60685 | 34850 ft | 477 kts | 135° |
| 2026-04-25 17:54 | 16.85842 | 85.65784 | 34855 ft | 477 kts | 135° |
| 2026-04-25 17:55 | 16.81340 | 85.70885 | 34856 ft | 477 kts | 135° |
| 2026-04-25 17:55 | 16.76847 | 85.75977 | 34856 ft | 477 kts | 135° |
| 2026-04-25 17:56 | 16.72349 | 85.81075 | 34859 ft | 477 kts | 135° |
| 2026-04-25 17:56 | 16.67873 | 85.86135 | 34859 ft | 477 kts | 135° |
| 2026-04-25 17:57 | 16.63372 | 85.91222 | 34854 ft | 476 kts | 135° |
| 2026-04-25 17:57 | 16.58877 | 85.96296 | 34859 ft | 476 kts | 135° |
| 2026-04-25 17:58 | 16.54380 | 86.01375 | 34858 ft | 476 kts | 135° |
| 2026-04-25 17:58 | 16.49885 | 86.06449 | 34857 ft | 476 kts | 135° |
| 2026-04-25 17:59 | 16.45391 | 86.11520 | 34858 ft | 476 kts | 135° |
| 2026-04-25 17:59 | 16.40893 | 86.16587 | 34859 ft | 476 kts | 135° |
| 2026-04-25 18:00 | 16.36389 | 86.21649 | 34859 ft | 477 kts | 135° |
| 2026-04-25 18:00 | 16.31880 | 86.26720 | 34862 ft | 477 kts | 135° |
| 2026-04-25 18:01 | 16.27414 | 86.31737 | 34859 ft | 475 kts | 135° |
| 2026-04-25 18:01 | 16.22924 | 86.36787 | 34856 ft | 475 kts | 135° |
| 2026-04-25 18:02 | 16.18424 | 86.41837 | 34855 ft | 475 kts | 135° |
| 2026-04-25 18:02 | 16.13922 | 86.46881 | 34860 ft | 475 kts | 135° |
| 2026-04-25 18:03 | 16.09426 | 86.51913 | 34861 ft | 475 kts | 135° |
| 2026-04-25 18:03 | 16.04957 | 86.56928 | 34862 ft | 475 kts | 135° |
| 2026-04-25 18:04 | 16.00465 | 86.61955 | 34862 ft | 474 kts | 135° |
| 2026-04-25 18:04 | 15.95977 | 86.66976 | 34858 ft | 474 kts | 135° |
| 2026-04-25 18:05 | 15.91496 | 86.71982 | 34860 ft | 472 kts | 135° |
| 2026-04-25 18:05 | 15.87022 | 86.76981 | 34861 ft | 472 kts | 135° |
| 2026-04-25 18:06 | 15.82545 | 86.81970 | 34863 ft | 472 kts | 135° |
| 2026-04-25 18:06 | 15.78065 | 86.86969 | 34861 ft | 472 kts | 135° |
| 2026-04-25 18:07 | 15.73592 | 86.91960 | 34865 ft | 472 kts | 135° |
| 2026-04-25 18:07 | 15.69145 | 86.96912 | 34865 ft | 470 kts | 136° |
| 2026-04-25 18:08 | 15.64687 | 87.01870 | 34863 ft | 469 kts | 136° |
| 2026-04-25 18:08 | 15.60231 | 87.06812 | 34865 ft | 468 kts | 136° |
| 2026-04-25 18:09 | 15.55805 | 87.11740 | 34866 ft | 467 kts | 136° |
| 2026-04-25 18:09 | 15.51372 | 87.16669 | 34867 ft | 467 kts | 136° |
| 2026-04-25 18:10 | 15.46933 | 87.21595 | 34871 ft | 467 kts | 136° |
| 2026-04-25 18:10 | 15.42498 | 87.26515 | 34867 ft | 467 kts | 136° |
| 2026-04-25 18:11 | 15.38086 | 87.31407 | 34868 ft | 467 kts | 136° |
| 2026-04-25 18:11 | 15.33645 | 87.36326 | 34870 ft | 467 kts | 136° |
| 2026-04-25 18:12 | 15.29208 | 87.41242 | 34868 ft | 467 kts | 136° |
| 2026-04-25 18:12 | 15.24817 | 87.46207 | 34866 ft | 468 kts | 135° |
| 2026-04-25 18:13 | 15.20483 | 87.51228 | 34866 ft | 468 kts | 135° |
| 2026-04-25 18:13 | 15.16148 | 87.56248 | 34866 ft | 468 kts | 135° |
| 2026-04-25 18:14 | 15.09643 | 87.63777 | 34868 ft | 468 kts | 135° |
| 2026-04-25 18:14 | 15.05304 | 87.68791 | 34868 ft | 468 kts | 135° |
| 2026-04-25 18:15 | 15.00959 | 87.73812 | 34868 ft | 468 kts | 135° |
| 2026-04-25 18:15 | 14.96609 | 87.78835 | 34867 ft | 468 kts | 135° |
| 2026-04-25 18:16 | 14.92289 | 87.83823 | 34865 ft | 468 kts | 134° |
| 2026-04-25 18:17 | 14.85762 | 87.91344 | 34868 ft | 468 kts | 134° |
| 2026-04-25 18:17 | 14.82116 | 87.95541 | 34868 ft | 468 kts | 134° |
| 2026-04-25 18:18 | 14.77766 | 88.00550 | 34869 ft | 468 kts | 134° |
| 2026-04-25 18:18 | 14.73440 | 88.05530 | 34867 ft | 468 kts | 134° |
| 2026-04-25 18:19 | 14.69083 | 88.10540 | 34865 ft | 469 kts | 134° |
| 2026-04-25 18:19 | 14.64714 | 88.15559 | 34865 ft | 470 kts | 134° |
| 2026-04-25 18:20 | 14.60339 | 88.20585 | 34870 ft | 470 kts | 134° |
| 2026-04-25 18:20 | 14.55966 | 88.25605 | 34867 ft | 470 kts | 134° |
| 2026-04-25 18:21 | 14.51601 | 88.30614 | 34869 ft | 469 kts | 134° |
| 2026-04-25 18:21 | 14.47234 | 88.35621 | 34868 ft | 469 kts | 134° |
| 2026-04-25 18:22 | 14.42861 | 88.40628 | 34868 ft | 469 kts | 134° |
| 2026-04-25 18:22 | 14.38518 | 88.45601 | 34867 ft | 469 kts | 134° |
| 2026-04-25 18:23 | 14.34144 | 88.50604 | 34868 ft | 469 kts | 134° |
| 2026-04-25 18:23 | 14.29773 | 88.55603 | 34869 ft | 469 kts | 134° |
| 2026-04-25 18:24 | 14.25393 | 88.60607 | 34865 ft | 469 kts | 134° |
| 2026-04-25 18:24 | 14.21020 | 88.65600 | 34866 ft | 469 kts | 134° |
| 2026-04-25 18:25 | 14.16645 | 88.70592 | 34867 ft | 468 kts | 134° |
| 2026-04-25 18:25 | 14.12283 | 88.75567 | 34868 ft | 468 kts | 134° |
| 2026-04-25 18:26 | 14.07914 | 88.80548 | 34868 ft | 468 kts | 134° |
| 2026-04-25 18:26 | 14.03548 | 88.85521 | 34867 ft | 468 kts | 134° |
| 2026-04-25 18:27 | 13.99178 | 88.90496 | 34869 ft | 467 kts | 134° |
| 2026-04-25 18:27 | 13.94841 | 88.95428 | 34867 ft | 468 kts | 134° |
| 2026-04-25 18:28 | 13.90479 | 89.00390 | 34864 ft | 467 kts | 134° |
| 2026-04-25 18:28 | 13.86111 | 89.05355 | 34864 ft | 467 kts | 134° |
| 2026-04-25 18:29 | 13.79566 | 89.12786 | 34867 ft | 466 kts | 134° |
| 2026-04-25 18:30 | 13.70849 | 89.22670 | 34868 ft | 466 kts | 134° |
| 2026-04-25 18:30 | 13.66487 | 89.27614 | 34868 ft | 466 kts | 134° |
| 2026-04-25 18:31 | 13.62150 | 89.32525 | 34868 ft | 467 kts | 134° |
| 2026-04-25 18:31 | 13.57785 | 89.37468 | 34868 ft | 467 kts | 134° |
| 2026-04-25 18:32 | 13.53420 | 89.42406 | 34866 ft | 467 kts | 134° |
| 2026-04-25 18:32 | 13.49049 | 89.47347 | 34865 ft | 466 kts | 133° |
| 2026-04-25 18:33 | 13.44690 | 89.52272 | 34864 ft | 465 kts | 133° |
| 2026-04-25 18:33 | 13.40333 | 89.57193 | 34865 ft | 465 kts | 133° |
| 2026-04-25 18:34 | 13.35973 | 89.62112 | 34865 ft | 465 kts | 133° |
| 2026-04-25 18:34 | 13.31619 | 89.67025 | 34864 ft | 465 kts | 133° |
| 2026-04-25 18:35 | 13.27256 | 89.71943 | 34863 ft | 465 kts | 133° |
| 2026-04-25 18:35 | 13.22924 | 89.76822 | 34864 ft | 465 kts | 133° |
| 2026-04-25 18:36 | 13.18562 | 89.81733 | 34868 ft | 465 kts | 133° |
| 2026-04-25 18:36 | 13.14197 | 89.86645 | 34868 ft | 465 kts | 134° |
| 2026-04-25 18:37 | 13.09835 | 89.91550 | 34865 ft | 464 kts | 133° |
| 2026-04-25 18:37 | 13.05487 | 89.96436 | 34868 ft | 464 kts | 133° |
| 2026-04-25 18:38 | 13.01159 | 90.01301 | 34866 ft | 463 kts | 133° |
| 2026-04-25 18:38 | 12.96814 | 90.06180 | 34868 ft | 463 kts | 133° |
| 2026-04-25 18:39 | 12.92469 | 90.11055 | 34864 ft | 463 kts | 133° |
| 2026-04-25 18:39 | 12.88122 | 90.15931 | 34865 ft | 463 kts | 133° |
| 2026-04-25 18:40 | 12.83770 | 90.20809 | 34865 ft | 463 kts | 133° |
| 2026-04-25 18:40 | 12.79424 | 90.25679 | 34865 ft | 463 kts | 133° |
| 2026-04-25 18:41 | 12.75076 | 90.30546 | 34864 ft | 462 kts | 133° |
| 2026-04-25 18:41 | 12.70735 | 90.35403 | 34865 ft | 462 kts | 133° |
| 2026-04-25 18:42 | 12.67863 | 90.38618 | 34864 ft | 461 kts | 133° |
| 2026-04-25 18:42 | 12.62072 | 90.45088 | 34864 ft | 461 kts | 133° |
| 2026-04-25 18:43 | 12.57737 | 90.49925 | 34864 ft | 460 kts | 133° |
| 2026-04-25 18:43 | 12.53444 | 90.54727 | 34863 ft | 460 kts | 133° |
| 2026-04-25 18:44 | 12.49118 | 90.59557 | 34861 ft | 461 kts | 133° |
| 2026-04-25 18:44 | 12.44784 | 90.64388 | 34861 ft | 461 kts | 133° |
| 2026-04-25 18:45 | 12.40454 | 90.69215 | 34862 ft | 461 kts | 132° |
| 2026-04-25 18:45 | 12.36129 | 90.74025 | 34861 ft | 459 kts | 132° |
| 2026-04-25 18:46 | 12.31813 | 90.78828 | 34864 ft | 458 kts | 132° |
| 2026-04-25 18:46 | 12.27504 | 90.83624 | 34861 ft | 458 kts | 132° |
| 2026-04-25 18:47 | 12.23189 | 90.88427 | 34861 ft | 459 kts | 132° |
| 2026-04-25 18:47 | 12.18878 | 90.93223 | 34860 ft | 458 kts | 132° |
| 2026-04-25 18:48 | 12.14563 | 90.98023 | 34866 ft | 458 kts | 132° |
| 2026-04-25 18:48 | 12.10236 | 91.02822 | 34865 ft | 458 kts | 132° |
| 2026-04-25 18:49 | 12.05952 | 91.07591 | 34864 ft | 458 kts | 132° |
| 2026-04-25 18:49 | 12.01630 | 91.12379 | 34866 ft | 457 kts | 132° |
| 2026-04-25 18:50 | 11.97314 | 91.17152 | 34863 ft | 457 kts | 132° |
| 2026-04-25 18:50 | 11.92999 | 91.21921 | 34862 ft | 457 kts | 132° |
| 2026-04-25 18:51 | 11.90153 | 91.25087 | 34864 ft | 457 kts | 131° |
| 2026-04-25 18:51 | 11.84310 | 91.31394 | 34862 ft | 457 kts | 135° |
| 2026-04-25 18:52 | 11.79782 | 91.35897 | 34858 ft | 457 kts | 135° |
| 2026-04-25 18:52 | 11.75224 | 91.40426 | 34865 ft | 457 kts | 135° |
| 2026-04-25 18:53 | 11.70652 | 91.44937 | 34865 ft | 457 kts | 135° |
| 2026-04-25 18:53 | 11.66089 | 91.49464 | 34865 ft | 457 kts | 135° |
| 2026-04-25 18:54 | 11.59244 | 91.56237 | 34865 ft | 457 kts | 135° |
| 2026-04-25 18:55 | 11.54705 | 91.60769 | 34863 ft | 456 kts | 135° |
| 2026-04-25 18:55 | 11.50160 | 91.65284 | 34865 ft | 456 kts | 135° |
| 2026-04-25 18:56 | 11.45604 | 91.69794 | 34861 ft | 456 kts | 135° |
| 2026-04-25 18:56 | 11.41041 | 91.74301 | 34859 ft | 456 kts | 135° |
| 2026-04-25 18:57 | 11.36519 | 91.78784 | 34859 ft | 456 kts | 135° |
| 2026-04-25 18:57 | 11.31739 | 91.83112 | 34865 ft | 457 kts | 138° |
| 2026-04-25 18:58 | 11.26975 | 91.87310 | 34858 ft | 455 kts | 138° |
| 2026-04-25 18:58 | 11.19792 | 91.93641 | 34858 ft | 454 kts | 137° |
| 2026-04-25 18:59 | 11.10220 | 92.02071 | 34861 ft | 454 kts | 137° |
| 2026-04-25 19:00 | 11.03046 | 92.08385 | 34865 ft | 454 kts | 137° |
| 2026-04-25 19:01 | 10.95862 | 92.14702 | 34861 ft | 454 kts | 137° |
| 2026-04-25 19:01 | 10.91099 | 92.18871 | 34860 ft | 455 kts | 137° |
| 2026-04-25 19:02 | 10.83905 | 92.25174 | 34858 ft | 455 kts | 137° |
| 2026-04-25 19:03 | 10.78309 | 92.30097 | 34859 ft | 455 kts | 137° |
| 2026-04-25 19:03 | 10.71938 | 92.35711 | 34858 ft | 455 kts | 137° |
| 2026-04-25 19:04 | 10.65561 | 92.41306 | 34860 ft | 455 kts | 137° |
| 2026-04-25 19:05 | 10.55182 | 92.50391 | 34863 ft | 456 kts | 138° |
| 2026-04-25 19:06 | 10.51144 | 92.53922 | 34862 ft | 457 kts | 138° |
| 2026-04-25 19:06 | 10.43952 | 92.60230 | 34859 ft | 457 kts | 138° |
| 2026-04-25 19:07 | 10.36726 | 92.66556 | 34858 ft | 457 kts | 138° |
| 2026-04-25 19:08 | 10.29492 | 92.72882 | 34859 ft | 457 kts | 138° |
| 2026-04-25 19:09 | 10.20658 | 92.80589 | 34858 ft | 457 kts | 138° |
| 2026-04-25 19:10 | 10.12595 | 92.87606 | 34859 ft | 457 kts | 138° |
| 2026-04-25 19:10 | 10.07771 | 92.91816 | 34859 ft | 457 kts | 138° |
| 2026-04-25 19:11 | 10.02944 | 92.96022 | 34858 ft | 457 kts | 138° |
| 2026-04-25 19:11 | 9.98127 | 93.00224 | 34855 ft | 456 kts | 138° |
| 2026-04-25 19:12 | 9.93352 | 93.04410 | 34853 ft | 456 kts | 138° |
| 2026-04-25 19:12 | 9.88537 | 93.08613 | 34856 ft | 457 kts | 138° |
| 2026-04-25 19:13 | 9.83704 | 93.12808 | 34855 ft | 457 kts | 138° |
| 2026-04-25 19:13 | 9.78881 | 93.17005 | 34857 ft | 457 kts | 138° |
| 2026-04-25 19:14 | 9.74061 | 93.21209 | 34855 ft | 457 kts | 138° |
| 2026-04-25 19:14 | 9.69229 | 93.25414 | 34855 ft | 457 kts | 138° |
| 2026-04-25 19:15 | 9.64396 | 93.29606 | 34854 ft | 457 kts | 138° |
| 2026-04-25 19:15 | 9.59568 | 93.33807 | 34855 ft | 457 kts | 138° |
| 2026-04-25 19:16 | 9.54744 | 93.38004 | 34858 ft | 457 kts | 138° |
| 2026-04-25 19:16 | 9.49913 | 93.42201 | 34853 ft | 457 kts | 138° |
| 2026-04-25 19:17 | 9.45110 | 93.46368 | 34852 ft | 457 kts | 138° |
| 2026-04-25 19:17 | 9.40270 | 93.50569 | 34852 ft | 458 kts | 139° |
| 2026-04-25 19:18 | 9.35431 | 93.54767 | 34853 ft | 458 kts | 139° |
| 2026-04-25 19:18 | 9.30591 | 93.58960 | 34852 ft | 458 kts | 139° |
| 2026-04-25 19:19 | 9.25752 | 93.63154 | 34854 ft | 458 kts | 139° |
| 2026-04-25 19:19 | 9.20908 | 93.67351 | 34852 ft | 458 kts | 139° |
| 2026-04-25 19:20 | 9.16068 | 93.71544 | 34852 ft | 458 kts | 139° |
| 2026-04-25 19:20 | 9.11226 | 93.75734 | 34853 ft | 458 kts | 139° |
| 2026-04-25 19:21 | 9.06384 | 93.79927 | 34853 ft | 458 kts | 139° |
| 2026-04-25 19:21 | 8.99117 | 93.86210 | 34852 ft | 457 kts | 139° |
| 2026-04-25 19:22 | 8.94306 | 93.90371 | 34851 ft | 457 kts | 139° |
| 2026-04-25 19:23 | 8.87060 | 93.96635 | 34853 ft | 457 kts | 139° |
| 2026-04-25 19:23 | 8.82595 | 94.01198 | 34851 ft | 457 kts | 125° |
| 2026-04-25 19:23 | 8.80857 | 94.03886 | 34854 ft | 456 kts | 122° |
| 2026-04-25 19:24 | 8.77525 | 94.09344 | 34849 ft | 457 kts | 121° |
| 2026-04-25 19:25 | 8.70793 | 94.20235 | 34852 ft | 456 kts | 122° |
| 2026-04-25 19:25 | 8.67424 | 94.25661 | 34853 ft | 458 kts | 121° |
| 2026-04-25 19:26 | 8.64015 | 94.31147 | 34852 ft | 456 kts | 122° |
| 2026-04-25 19:26 | 8.60623 | 94.36593 | 34849 ft | 458 kts | 121° |
| 2026-04-25 19:27 | 8.57818 | 94.41117 | 34849 ft | 457 kts | 120° |
| 2026-04-25 19:27 | 8.54319 | 94.47692 | 34848 ft | 458 kts | 117° |
| 2026-04-25 19:28 | 8.51711 | 94.52704 | 34849 ft | 457 kts | 117° |
| 2026-04-25 19:28 | 8.49314 | 94.57307 | 34850 ft | 457 kts | 117° |
| 2026-04-25 19:29 | 8.46346 | 94.62993 | 34848 ft | 458 kts | 117° |
| 2026-04-25 19:29 | 8.43374 | 94.68675 | 34846 ft | 458 kts | 117° |
| 2026-04-25 19:30 | 8.40394 | 94.74367 | 34846 ft | 458 kts | 117° |
| 2026-04-25 19:30 | 8.37421 | 94.80048 | 34847 ft | 458 kts | 117° |
| 2026-04-25 19:31 | 8.34444 | 94.85735 | 34843 ft | 458 kts | 117° |
| 2026-04-25 19:31 | 8.31486 | 94.91380 | 34842 ft | 458 kts | 117° |
| 2026-04-25 19:32 | 8.28506 | 94.97066 | 34838 ft | 458 kts | 118° |
| 2026-04-25 19:32 | 8.26514 | 95.00871 | 34840 ft | 458 kts | 118° |
| 2026-04-25 19:33 | 8.22547 | 95.08441 | 34841 ft | 458 kts | 118° |
| 2026-04-25 19:33 | 8.19565 | 95.14123 | 34840 ft | 458 kts | 118° |
| 2026-04-25 19:34 | 8.16581 | 95.19809 | 34838 ft | 458 kts | 118° |
| 2026-04-25 19:34 | 8.13595 | 95.25492 | 34837 ft | 458 kts | 118° |
| 2026-04-25 19:35 | 8.10612 | 95.31171 | 34837 ft | 458 kts | 118° |
| 2026-04-25 19:35 | 8.07620 | 95.36860 | 34838 ft | 459 kts | 118° |
| 2026-04-25 19:36 | 8.04623 | 95.42562 | 34837 ft | 460 kts | 118° |
| 2026-04-25 19:36 | 8.01747 | 95.48285 | 34834 ft | 460 kts | 111° |
| 2026-04-25 19:37 | 8.00552 | 95.54591 | 34839 ft | 460 kts | 90° |
| 2026-04-25 19:37 | 8.00777 | 95.61036 | 34838 ft | 459 kts | 88° |
| 2026-04-25 19:38 | 8.01007 | 95.67429 | 34836 ft | 453 kts | 88° |
| 2026-04-25 19:38 | 8.01222 | 95.73790 | 34842 ft | 458 kts | 88° |
| 2026-04-25 19:39 | 8.01440 | 95.80187 | 34841 ft | 459 kts | 88° |
| 2026-04-25 19:39 | 8.01651 | 95.86629 | 34839 ft | 459 kts | 88° |
| 2026-04-25 19:40 | 8.01860 | 95.93064 | 34837 ft | 459 kts | 88° |
| 2026-04-25 19:40 | 8.02067 | 95.99502 | 34834 ft | 456 kts | 88° |
| 2026-04-25 19:41 | 8.02257 | 96.05856 | 34832 ft | 452 kts | 88° |
| 2026-04-25 19:41 | 8.02387 | 96.10097 | 34841 ft | 458 kts | 88° |
| 2026-04-25 19:42 | 8.02669 | 96.18673 | 34837 ft | 457 kts | 88° |
| 2026-04-25 19:42 | 8.02872 | 96.25086 | 34835 ft | 457 kts | 88° |
| 2026-04-25 19:43 | 8.03075 | 96.31444 | 34836 ft | 456 kts | 88° |
| 2026-04-25 19:43 | 8.03269 | 96.37814 | 34832 ft | 451 kts | 88° |
| 2026-04-25 19:44 | 8.03471 | 96.44138 | 34840 ft | 455 kts | 88° |
| 2026-04-25 19:44 | 8.03672 | 96.50544 | 34840 ft | 457 kts | 88° |
| 2026-04-25 19:45 | 8.03874 | 96.56940 | 34839 ft | 456 kts | 88° |
| 2026-04-25 19:45 | 8.04068 | 96.63341 | 34838 ft | 456 kts | 88° |
| 2026-04-25 19:46 | 8.04261 | 96.69707 | 34409 ft | 453 kts | 88° |
| 2026-04-25 19:46 | 8.04357 | 96.72893 | 34144 ft | 456 kts | 88° |
| 2026-04-25 19:46 | 8.04453 | 96.76096 | 33911 ft | 457 kts | 88° |
| 2026-04-25 19:47 | 8.04548 | 96.79294 | 33444 ft | 455 kts | 88° |
| 2026-04-25 19:47 | 8.04645 | 96.82490 | 32666 ft | 456 kts | 88° |
| 2026-04-25 19:47 | 8.04742 | 96.85651 | 31947 ft | 457 kts | 88° |
| 2026-04-25 19:47 | 8.04840 | 96.88859 | 31236 ft | 458 kts | 88° |
| 2026-04-25 19:48 | 8.04936 | 96.92074 | 30540 ft | 459 kts | 88° |
| 2026-04-25 19:48 | 8.05033 | 96.95293 | 29771 ft | 460 kts | 88° |
| 2026-04-25 19:48 | 8.05132 | 96.98526 | 28829 ft | 462 kts | 88° |
| 2026-04-25 19:48 | 8.05233 | 97.01780 | 27937 ft | 464 kts | 88° |
| 2026-04-25 19:49 | 8.05330 | 97.05033 | 27058 ft | 465 kts | 88° |
| 2026-04-25 19:49 | 8.05364 | 97.06137 | 26755 ft | 466 kts | 88° |
| 2026-04-25 19:49 | 8.05525 | 97.11581 | 25233 ft | 468 kts | 88° |
| 2026-04-25 19:49 | 8.05618 | 97.14859 | 24381 ft | 465 kts | 88° |
| 2026-04-25 19:50 | 8.05814 | 97.21321 | 22784 ft | 457 kts | 88° |
| 2026-04-25 19:50 | 8.05920 | 97.23438 | 22235 ft | 456 kts | 87° |
| 2026-04-25 19:50 | 8.06086 | 97.26625 | 21544 ft | 452 kts | 87° |
| 2026-04-25 19:51 | 8.06251 | 97.29779 | 20918 ft | 447 kts | 87° |
| 2026-04-25 19:51 | 8.06418 | 97.32894 | 20251 ft | 444 kts | 87° |
| 2026-04-25 19:51 | 8.06585 | 97.35990 | 19593 ft | 440 kts | 87° |
| 2026-04-25 19:51 | 8.06801 | 97.40048 | 18742 ft | 434 kts | 87° |
| 2026-04-25 19:52 | 8.06962 | 97.43064 | 18047 ft | 428 kts | 87° |
| 2026-04-25 19:52 | 8.07122 | 97.46042 | 17285 ft | 424 kts | 87° |
| 2026-04-25 19:52 | 8.07227 | 97.48048 | 16851 ft | 422 kts | 87° |
| 2026-04-25 19:52 | 8.07382 | 97.50992 | 16273 ft | 418 kts | 87° |
| 2026-04-25 19:53 | 8.07536 | 97.53909 | 15706 ft | 414 kts | 87° |
| 2026-04-25 19:53 | 8.07687 | 97.56762 | 15127 ft | 411 kts | 87° |
| 2026-04-25 19:53 | 8.07833 | 97.59628 | 14618 ft | 406 kts | 87° |
| 2026-04-25 19:53 | 8.07975 | 97.62465 | 14114 ft | 402 kts | 87° |
| 2026-04-25 19:54 | 8.08117 | 97.65263 | 13540 ft | 396 kts | 87° |
| 2026-04-25 19:54 | 8.08257 | 97.68031 | 12913 ft | 394 kts | 87° |
| 2026-04-25 19:54 | 8.08397 | 97.70790 | 12290 ft | 393 kts | 87° |
| 2026-04-25 19:54 | 8.08489 | 97.72604 | 11908 ft | 391 kts | 88° |
| 2026-04-25 19:55 | 8.08670 | 97.76200 | 11437 ft | 373 kts | 87° |
| 2026-04-25 19:55 | 8.08823 | 97.78755 | 11202 ft | 358 kts | 85° |
| 2026-04-25 19:55 | 8.09293 | 97.81169 | 11016 ft | 344 kts | 73° |
| 2026-04-25 19:55 | 8.10140 | 97.83373 | 10863 ft | 330 kts | 68° |
| 2026-04-25 19:56 | 8.11025 | 97.85460 | 10728 ft | 316 kts | 68° |
| 2026-04-25 19:56 | 8.11877 | 97.87460 | 10610 ft | 304 kts | 68° |
| 2026-04-25 19:56 | 8.12682 | 97.89354 | 10474 ft | 292 kts | 68° |
| 2026-04-25 19:56 | 8.13480 | 97.91244 | 10362 ft | 292 kts | 68° |
| 2026-04-25 19:57 | 8.14273 | 97.93131 | 10233 ft | 292 kts | 68° |
| 2026-04-25 19:57 | 8.15063 | 97.95011 | 10129 ft | 291 kts | 68° |
| 2026-04-25 19:57 | 8.15855 | 97.96892 | 10018 ft | 291 kts | 68° |
| 2026-04-25 19:57 | 8.16645 | 97.98765 | 9898 ft | 290 kts | 68° |
| 2026-04-25 19:58 | 8.17433 | 98.00635 | 9790 ft | 289 kts | 68° |
| 2026-04-25 19:58 | 8.18219 | 98.02505 | 9669 ft | 289 kts | 68° |
| 2026-04-25 19:58 | 8.18843 | 98.04423 | 9538 ft | 287 kts | 80° |
| 2026-04-25 19:58 | 8.19080 | 98.06420 | 9426 ft | 286 kts | 85° |
| 2026-04-25 19:59 | 8.19250 | 98.08416 | 9292 ft | 286 kts | 86° |
| 2026-04-25 19:59 | 8.19421 | 98.10420 | 9168 ft | 285 kts | 85° |
| 2026-04-25 19:59 | 8.19598 | 98.12412 | 9046 ft | 284 kts | 85° |
| 2026-04-25 19:59 | 8.19780 | 98.14398 | 8923 ft | 284 kts | 85° |
| 2026-04-25 20:00 | 8.19964 | 98.16386 | 8796 ft | 284 kts | 85° |
| 2026-04-25 20:00 | 8.20086 | 98.17700 | 8715 ft | 284 kts | 85° |
| 2026-04-25 20:00 | 8.20331 | 98.20342 | 8551 ft | 282 kts | 85° |
| 2026-04-25 20:00 | 8.20517 | 98.22315 | 8430 ft | 282 kts | 85° |
| 2026-04-25 20:01 | 8.20891 | 98.26248 | 8189 ft | 281 kts | 85° |
| 2026-04-25 20:01 | 8.21076 | 98.28209 | 8043 ft | 280 kts | 85° |
| 2026-04-25 20:01 | 8.21258 | 98.30156 | 7814 ft | 277 kts | 85° |
| 2026-04-25 20:02 | 8.21440 | 98.32084 | 7550 ft | 276 kts | 85° |
| 2026-04-25 20:02 | 8.21620 | 98.34010 | 7254 ft | 275 kts | 85° |
| 2026-04-25 20:02 | 8.21802 | 98.35936 | 6945 ft | 276 kts | 85° |
| 2026-04-25 20:02 | 8.21981 | 98.37862 | 6630 ft | 276 kts | 85° |
| 2026-04-25 20:03 | 8.22164 | 98.39792 | 6322 ft | 276 kts | 85° |
| 2026-04-25 20:03 | 8.22345 | 98.41713 | 6006 ft | 273 kts | 85° |
| 2026-04-25 20:03 | 8.22521 | 98.43583 | 5682 ft | 270 kts | 85° |
| 2026-04-25 20:03 | 8.22699 | 98.45478 | 5354 ft | 271 kts | 85° |
| 2026-04-25 20:04 | 8.22877 | 98.47368 | 5064 ft | 269 kts | 85° |
| 2026-04-25 20:04 | 8.23048 | 98.49205 | 4969 ft | 256 kts | 85° |
| 2026-04-25 20:04 | 8.23210 | 98.50943 | 4962 ft | 241 kts | 85° |
| 2026-04-25 20:04 | 8.23234 | 98.52573 | 4955 ft | 227 kts | 100° |
| 2026-04-25 20:05 | 8.22626 | 98.54027 | 4963 ft | 227 kts | 128° |
| 2026-04-25 20:05 | 8.21395 | 98.55006 | 4795 ft | 228 kts | 156° |
| 2026-04-25 20:05 | 8.19841 | 98.55334 | 4505 ft | 230 kts | 174° |
| 2026-04-25 20:05 | 8.18247 | 98.55427 | 4220 ft | 229 kts | 175° |
| 2026-04-25 20:06 | 8.16654 | 98.55529 | 4058 ft | 228 kts | 174° |
| 2026-04-25 20:06 | 8.15086 | 98.55532 | 3939 ft | 229 kts | 189° |
| 2026-04-25 20:06 | 8.13717 | 98.54820 | 3802 ft | 220 kts | 225° |
| 2026-04-25 20:06 | 8.12988 | 98.53505 | 3587 ft | 214 kts | 253° |
| 2026-04-25 20:07 | 8.12716 | 98.52032 | 3310 ft | 214 kts | 266° |
| 2026-04-25 20:07 | 8.12704 | 98.50539 | 3022 ft | 213 kts | 264° |
| 2026-04-25 20:07 | 8.12606 | 98.49048 | 2712 ft | 213 kts | 265° |
| 2026-04-25 20:07 | 8.12503 | 98.47554 | 2429 ft | 213 kts | 265° |
| 2026-04-25 20:08 | 8.12399 | 98.46057 | 2260 ft | 214 kts | 265° |
| 2026-04-25 20:08 | 8.12297 | 98.44581 | 2194 ft | 201 kts | 265° |
| 2026-04-25 20:08 | 8.12204 | 98.43243 | 2118 ft | 182 kts | 265° |
| 2026-04-25 20:08 | 8.12119 | 98.42013 | 1921 ft | 167 kts | 265° |
| 2026-04-25 20:09 | 8.12043 | 98.40928 | 1694 ft | 150 kts | 265° |
| 2026-04-25 20:09 | 8.11971 | 98.39886 | 1477 ft | 148 kts | 265° |
| 2026-04-25 20:09 | 8.11899 | 98.38854 | 1275 ft | 147 kts | 265° |
| 2026-04-25 20:09 | 8.11829 | 98.37835 | 1076 ft | 145 kts | 265° |
| 2026-04-25 20:10 | 8.11758 | 98.36831 | 889 ft | 141 kts | 265° |
| 2026-04-25 20:10 | 8.11691 | 98.35858 | 708 ft | 140 kts | 266° |
| 2026-04-25 20:10 | 8.11618 | 98.34884 | 513 ft | 139 kts | 266° |
| 2026-04-25 20:10 | 8.11531 | 98.33902 | 315 ft | 143 kts | 265° |
| 2026-04-25 20:11 | 8.11435 | 98.32912 | 117 ft | 141 kts | 266° |
| 2026-04-25 20:11 | 8.11355 | 98.31973 | 60 ft | 119 kts | 263° |
| 2026-04-25 20:11 | 8.11291 | 98.31348 | 38 ft | 55 kts | 263° |
| 2026-04-25 20:11 | 8.11282 | 98.31275 | 37 ft | 3 kts | 261° |
| 2026-04-25 20:12 | 8.11274 | 98.31239 | 36 ft | 8 kts | 255° |
| 2026-04-25 20:12 | 8.11236 | 98.31184 | 36 ft | 13 kts | 206° |
| 2026-04-25 20:12 | 8.11193 | 98.31090 | 35 ft | 17 kts | 239° |
| 2026-04-25 20:12 | 8.11171 | 98.31056 | 35 ft | 17 kts | 235° |
| 2026-04-25 20:13 | 8.11139 | 98.31010 | 35 ft | 0 kts | 234° |
| 2026-04-25 20:13 | 8.11136 | 98.31005 | 35 ft | 2 kts | 234° |
| 2026-04-25 20:13 | 8.11122 | 98.30987 | 35 ft | 5 kts | 232° |
| 2026-04-25 20:14 | 8.11098 | 98.30951 | 35 ft | 8 kts | 242° |
| 2026-04-25 20:14 | 8.11082 | 98.30888 | 34 ft | 11 kts | 262° |
| 2026-04-25 20:14 | 8.11074 | 98.30796 | 34 ft | 15 kts | 265° |
| 2026-04-25 20:14 | 8.11061 | 98.30682 | 34 ft | 18 kts | 266° |
| 2026-04-25 20:15 | 8.11052 | 98.30547 | 33 ft | 20 kts | 264° |
| 2026-04-25 20:15 | 8.11050 | 98.30536 | 33 ft | 0 kts | 264° |
| 2026-04-25 20:15 | 8.11049 | 98.30526 | 33 ft | 3 kts | 263° |
| 2026-04-25 20:15 | 8.11045 | 98.30477 | 33 ft | 14 kts | 267° |
| 2026-04-25 20:16 | 8.10950 | 98.30392 | 32 ft | 23 kts | 192° |
| 2026-04-25 20:16 | 8.10787 | 98.30351 | 32 ft | 25 kts | 196° |
| 2026-04-25 20:16 | 8.10613 | 98.30304 | 32 ft | 27 kts | 196° |
| 2026-04-25 20:16 | 8.10558 | 98.30289 | 32 ft | 2 kts | 194° |
| 2026-04-25 20:17 | 8.10527 | 98.30281 | 32 ft | 7 kts | 205° |
| 2026-04-25 20:17 | 8.10525 | 98.30233 | 31 ft | 0 kts | 286° |
| 2026-04-25 20:17 | 8.10525 | 98.30232 | 31 ft | 1 kts | 286° |
| 2026-04-25 20:18 | 8.10529 | 98.30216 | 31 ft | 4 kts | 285° |
| 2026-04-25 20:18 | 8.10531 | 98.30206 | 31 ft | 0 kts | 285° |
| 2026-04-25 20:18 | 8.10532 | 98.30204 | 31 ft | 0 kts | 285° |